createdAt,value
2023-03-22T00:02:02.645Z,77.09
2023-03-22T00:04:29.102Z,76.92
2023-03-22T00:06:55.462Z,76.84
2023-03-22T00:09:21.821Z,76.72
2023-03-22T00:11:50.937Z,76.71
2023-03-22T00:14:18.384Z,77.07
2023-03-22T00:16:46.186Z,76.95
2023-03-22T00:19:12.673Z,77.14
2023-03-22T00:21:39.034Z,77.05
2023-03-22T00:24:05.785Z,77.21
2023-03-22T00:26:32.155Z,77.48
2023-03-22T00:28:58.557Z,77.68
2023-03-22T00:31:25.112Z,77.63
2023-03-22T00:33:51.529Z,77.88
2023-03-22T00:36:17.981Z,77.84
2023-03-22T00:38:44.959Z,78.29
2023-03-22T00:41:17.362Z,78.54
2023-03-22T00:43:44.538Z,78.39
2023-03-22T00:46:12.449Z,78.73
2023-03-22T00:48:39.247Z,78.94
2023-03-22T00:51:06.522Z,79.08
2023-03-22T00:53:33.544Z,79.31
2023-03-22T00:56:00.251Z,79.72
2023-03-22T00:58:26.793Z,79.68
2023-03-22T01:00:53.348Z,79.76
2023-03-22T01:03:22.048Z,80.15
2023-03-22T01:05:51.857Z,80.41
2023-03-22T01:08:18.284Z,80.28
2023-03-22T01:10:44.828Z,80.75
2023-03-22T01:13:13.431Z,80.83
2023-03-22T01:15:41.253Z,80.96
2023-03-22T01:18:08.716Z,81.12
2023-03-22T01:20:36.185Z,81.31
2023-03-22T01:23:02.902Z,81.48
2023-03-22T01:25:29.450Z,82.00
2023-03-22T01:27:56.113Z,82.51
2023-03-22T01:30:22.554Z,82.81
2023-03-22T01:32:48.973Z,83.45
2023-03-22T01:35:15.509Z,83.31
2023-03-22T01:37:41.875Z,83.76
2023-03-22T01:40:08.766Z,84.48
2023-03-22T01:42:35.586Z,84.72
2023-03-22T01:45:39.988Z,85.47
2023-03-22T01:48:46.096Z,86.35
2023-03-22T01:51:16.530Z,86.66
2023-03-22T01:53:48.174Z,86.50
2023-03-22T01:56:14.644Z,86.50
2023-03-22T01:58:42.031Z,87.02
2023-03-22T02:01:10.287Z,86.83
2023-03-22T02:03:58.365Z,86.92
2023-03-22T02:06:26.430Z,87.04
2023-03-22T02:08:58.049Z,87.93
2023-03-22T02:11:38.466Z,88.31
2023-03-22T02:14:13.752Z,88.42
2023-03-22T02:17:01.251Z,88.25
2023-03-22T02:19:42.250Z,88.21
2023-03-22T02:22:39.362Z,88.26
2023-03-22T02:25:43.704Z,87.86
2023-03-22T02:28:10.122Z,87.57
2023-03-22T02:31:02.151Z,87.04
2023-03-22T02:33:59.686Z,86.97
2023-03-22T02:36:47.684Z,86.69
2023-03-22T02:39:31.614Z,86.35
2023-03-22T02:42:17.403Z,86.43
2023-03-22T02:45:01.428Z,86.26
2023-03-22T02:47:40.823Z,86.14
2023-03-22T02:50:15.217Z,86.16
2023-03-22T02:52:52.824Z,86.15
2023-03-22T02:55:45.296Z,86.01
2023-03-22T02:58:29.137Z,86.35
2023-03-22T03:01:01.780Z,86.15
2023-03-22T03:03:31.961Z,86.30
2023-03-22T03:06:08.359Z,86.43
2023-03-22T03:08:36.926Z,86.33
2023-03-22T03:11:03.447Z,86.99
2023-03-22T03:13:30.381Z,86.67
2023-03-22T03:15:59.457Z,86.85
2023-03-22T03:18:50.340Z,86.78
2023-03-22T03:21:19.600Z,86.92
2023-03-22T03:24:11.335Z,86.83
2023-03-22T03:27:00.809Z,87.25
2023-03-22T03:29:38.684Z,87.26
2023-03-22T03:32:31.479Z,87.24
2023-03-22T03:35:22.986Z,87.43
2023-03-22T03:37:53.822Z,87.60
2023-03-22T03:40:26.595Z,87.76
2023-03-22T03:42:56.080Z,87.69
2023-03-22T03:45:23.774Z,88.11
2023-03-22T03:47:56.853Z,87.87
2023-03-22T03:50:25.472Z,88.49
2023-03-22T03:52:53.787Z,88.50
2023-03-22T03:55:21.164Z,88.39
2023-03-22T03:57:47.715Z,88.52
2023-03-22T04:00:14.917Z,88.61
2023-03-22T04:02:42.439Z,88.86
2023-03-22T04:05:09.944Z,89.08
2023-03-22T04:07:37.208Z,89.04
2023-03-22T04:10:05.200Z,88.71
2023-03-22T04:12:32.526Z,89.10
2023-03-22T04:14:59.010Z,89.30
2023-03-22T04:17:27.064Z,89.15
2023-03-22T04:19:53.418Z,88.95
2023-03-22T04:22:19.806Z,89.25
2023-03-22T04:24:50.075Z,89.12
2023-03-22T04:27:17.988Z,88.93
2023-03-22T04:29:48.419Z,88.95
2023-03-22T04:32:19.048Z,89.07
2023-03-22T04:34:46.445Z,88.81
2023-03-22T04:37:13.808Z,89.44
2023-03-22T04:39:40.456Z,88.83
2023-03-22T04:42:06.828Z,89.14
2023-03-22T04:44:33.217Z,88.78
2023-03-22T04:46:59.612Z,89.53
2023-03-22T04:49:29.430Z,88.93
2023-03-22T04:51:56.010Z,88.81
2023-03-22T04:54:23.259Z,88.70
2023-03-22T04:56:50.065Z,88.55
2023-03-22T04:59:20.310Z,88.67
2023-03-22T05:01:51.358Z,88.66
2023-03-22T05:04:18.651Z,88.46
2023-03-22T05:06:45.616Z,88.58
2023-03-22T05:09:12.607Z,88.48
2023-03-22T05:11:40.574Z,88.28
2023-03-22T05:14:08.757Z,88.20
2023-03-22T05:16:35.874Z,87.94
2023-03-22T05:19:02.995Z,87.77
2023-03-22T05:21:36.808Z,87.46
2023-03-22T05:24:03.770Z,87.76
2023-03-22T05:26:30.410Z,87.61
2023-03-22T05:28:56.859Z,87.18
2023-03-22T05:31:23.959Z,87.05
2023-03-22T05:33:52.048Z,86.80
2023-03-22T05:36:20.510Z,86.68
2023-03-22T05:38:47.529Z,86.73
2023-03-22T05:41:14.041Z,86.66
2023-03-22T05:43:40.839Z,86.57
2023-03-22T05:46:11.782Z,86.42
2023-03-22T05:48:39.006Z,86.28
2023-03-22T05:51:10.286Z,86.48
2023-03-22T05:53:37.063Z,86.48
2023-03-22T05:56:03.684Z,86.20
2023-03-22T05:58:31.820Z,86.39
2023-03-22T06:01:00.944Z,85.90
2023-03-22T06:03:28.388Z,86.01
2023-03-22T06:05:54.940Z,85.70
2023-03-22T06:08:24.732Z,86.09
2023-03-22T06:10:53.396Z,86.20
2023-03-22T06:13:20.680Z,86.15
2023-03-22T06:15:47.407Z,86.41
2023-03-22T06:18:13.854Z,86.52
2023-03-22T06:20:40.733Z,86.87
2023-03-22T06:23:07.315Z,86.39
2023-03-22T06:25:33.719Z,86.70
2023-03-22T06:28:00.373Z,86.96
2023-03-22T06:30:26.971Z,86.35
2023-03-22T06:32:53.459Z,85.88
2023-03-22T06:35:20.085Z,86.22
2023-03-22T06:37:46.546Z,85.80
2023-03-22T06:40:12.947Z,85.31
2023-03-22T06:42:39.287Z,85.65
2023-03-22T06:45:07.049Z,85.51
2023-03-22T06:47:33.374Z,84.82
2023-03-22T06:49:59.726Z,84.60
2023-03-22T06:52:26.135Z,84.63
2023-03-22T06:54:52.578Z,84.66
2023-03-22T06:57:18.970Z,83.63
2023-03-22T06:59:45.492Z,83.11
2023-03-22T07:02:12.153Z,83.52
2023-03-22T07:04:38.602Z,83.45
2023-03-22T07:07:05.627Z,83.41
2023-03-22T07:09:31.991Z,83.03
2023-03-22T07:11:58.354Z,82.59
2023-03-22T07:14:24.739Z,82.92
2023-03-22T07:16:51.164Z,82.77
2023-03-22T07:19:18.379Z,82.02
2023-03-22T07:21:44.825Z,81.37
2023-03-22T07:24:11.996Z,79.90
2023-03-22T07:26:39.049Z,78.76
2023-03-22T07:29:05.418Z,77.24
2023-03-22T07:31:36.361Z,75.77
2023-03-22T07:34:04.081Z,76.37
2023-03-22T07:36:30.975Z,75.80
2023-03-22T07:38:57.765Z,75.34
2023-03-22T07:41:25.381Z,75.74
2023-03-22T07:43:56.828Z,74.75
2023-03-22T07:46:28.783Z,74.20
2023-03-22T07:48:55.180Z,74.81
2023-03-22T07:51:21.498Z,74.85
2023-03-22T07:53:47.919Z,74.82
2023-03-22T07:56:14.390Z,74.34
2023-03-22T07:58:40.923Z,74.70
2023-03-22T08:01:10.816Z,73.10
2023-03-22T08:03:37.677Z,72.64
2023-03-22T08:06:07.731Z,72.50
2023-03-22T08:08:35.564Z,72.73
2023-03-22T08:11:02.078Z,72.99
2023-03-22T08:13:28.592Z,72.36
2023-03-22T08:15:55.193Z,72.94
2023-03-22T08:18:21.843Z,72.34
2023-03-22T08:20:54.585Z,73.32
2023-03-22T08:23:28.791Z,72.62
2023-03-22T08:26:01.359Z,71.27
2023-03-22T08:28:27.770Z,71.79
2023-03-22T08:30:54.153Z,70.91
2023-03-22T08:33:23.473Z,70.89
2023-03-22T08:35:50.655Z,70.71
2023-03-22T08:38:18.032Z,69.08
2023-03-22T08:40:47.902Z,69.34
2023-03-22T08:43:14.256Z,68.75
2023-03-22T08:45:41.042Z,68.40
2023-03-22T08:48:07.631Z,68.69
2023-03-22T08:50:34.908Z,68.34
2023-03-22T08:53:01.299Z,68.18
2023-03-22T08:55:27.809Z,67.42
2023-03-22T08:57:58.682Z,67.95
2023-03-22T09:00:25.478Z,67.02
2023-03-22T09:02:52.036Z,65.48
2023-03-22T09:05:18.628Z,64.33
2023-03-22T09:07:45.268Z,64.33
2023-03-22T09:10:11.931Z,64.28
2023-03-22T09:12:38.746Z,63.39
2023-03-22T09:15:06.243Z,63.50
2023-03-22T09:17:32.943Z,60.97
2023-03-22T09:20:11.637Z,60.88
2023-03-22T09:22:38.850Z,60.75
2023-03-22T09:25:06.438Z,60.08
2023-03-22T09:27:33.187Z,58.63
2023-03-22T09:30:00.216Z,58.12
2023-03-22T09:32:26.620Z,57.63
2023-03-22T09:34:53.169Z,57.62
2023-03-22T09:37:20.297Z,58.53
2023-03-22T09:39:46.739Z,58.32
2023-03-22T09:42:38.363Z,59.38
2023-03-22T09:45:08.674Z,59.42
2023-03-22T09:47:44.841Z,60.43
2023-03-22T09:50:19.902Z,60.03
2023-03-22T09:52:46.530Z,60.42
2023-03-22T09:55:33.180Z,60.37
2023-03-22T09:58:10.713Z,60.60
2023-03-22T10:00:43.338Z,60.09
2023-03-22T10:03:41.232Z,59.77
2023-03-22T10:06:21.759Z,59.92
2023-03-22T10:09:03.332Z,59.03
2023-03-22T10:11:48.045Z,59.39
2023-03-22T10:14:36.024Z,59.12
2023-03-22T10:17:08.484Z,59.60
2023-03-22T10:19:53.064Z,58.89
2023-03-22T10:22:25.115Z,59.70
2023-03-22T10:24:53.317Z,59.41
2023-03-22T10:27:22.292Z,59.03
2023-03-22T10:29:55.777Z,59.92
2023-03-22T10:33:04.473Z,59.13
2023-03-22T10:35:31.894Z,59.54
2023-03-22T10:38:01.941Z,57.96
2023-03-22T10:40:34.061Z,58.75
2023-03-22T10:43:07.717Z,58.46
2023-03-22T10:45:36.086Z,58.90
2023-03-22T10:48:21.202Z,58.96
2023-03-22T10:50:47.768Z,59.86
2023-03-22T10:53:20.033Z,59.26
2023-03-22T10:55:46.492Z,60.43
2023-03-22T10:58:18.910Z,60.32
2023-03-22T11:00:51.800Z,60.48
2023-03-22T11:03:31.898Z,59.59
2023-03-22T11:06:11.483Z,59.59
2023-03-22T11:08:47.675Z,59.86
2023-03-22T11:11:19.972Z,59.17
2023-03-22T11:13:52.390Z,59.10
2023-03-22T11:16:20.164Z,60.13
2023-03-22T11:18:47.113Z,59.13
2023-03-22T11:21:17.004Z,58.97
2023-03-22T11:23:58.346Z,59.36
2023-03-22T11:26:27.678Z,59.73
2023-03-22T11:29:04.569Z,59.38
2023-03-22T11:31:55.142Z,60.05
2023-03-22T11:34:24.255Z,60.09
2023-03-22T11:36:57.090Z,60.69
2023-03-22T11:39:28.089Z,60.49
2023-03-22T11:41:58.199Z,60.71
2023-03-22T11:44:27.026Z,61.14
2023-03-22T11:47:00.585Z,60.43
2023-03-22T11:49:37.638Z,60.42
2023-03-22T11:52:11.291Z,60.15
2023-03-22T11:54:39.528Z,60.78
2023-03-22T11:57:13.402Z,60.55
2023-03-22T11:59:58.267Z,59.67
2023-03-22T12:02:32.406Z,60.56
2023-03-22T12:05:05.436Z,59.65
2023-03-22T12:07:34.501Z,59.38
2023-03-22T12:10:15.768Z,59.02
2023-03-22T12:12:51.612Z,58.35
2023-03-22T12:15:22.270Z,58.09
2023-03-22T12:17:58.673Z,58.45
2023-03-22T12:20:43.103Z,58.16
2023-03-22T12:23:15.555Z,58.22
2023-03-22T12:25:49.157Z,58.34
2023-03-22T12:28:20.231Z,58.81
2023-03-22T12:30:51.328Z,58.58
2023-03-22T12:33:27.437Z,59.16
2023-03-22T12:35:58.706Z,60.67
2023-03-22T12:38:37.056Z,61.11
2023-03-22T12:41:09.785Z,60.12
2023-03-22T12:43:44.380Z,59.52
2023-03-22T12:46:19.385Z,59.65
2023-03-22T12:48:48.443Z,60.58
2023-03-22T12:51:15.577Z,60.89
2023-03-22T12:53:46.886Z,60.66
2023-03-22T12:56:17.485Z,61.07
2023-03-22T12:58:51.792Z,61.82
2023-03-22T13:01:30.065Z,61.41
2023-03-22T13:03:57.793Z,61.57
2023-03-22T13:06:58.589Z,61.91
2023-03-22T13:09:27.663Z,63.01
2023-03-22T13:12:16.375Z,62.18
2023-03-22T13:14:48.872Z,61.88
2023-03-22T13:17:35.624Z,62.11
2023-03-22T13:20:11.442Z,61.55
2023-03-22T13:22:38.030Z,62.12
2023-03-22T13:25:12.468Z,62.60
2023-03-22T13:28:03.301Z,62.66
2023-03-22T13:30:34.658Z,62.91
2023-03-22T13:33:10.314Z,63.03
2023-03-22T13:35:39.891Z,63.21
2023-03-22T13:38:19.624Z,63.39
2023-03-22T13:40:51.813Z,63.26
2023-03-22T13:43:27.352Z,63.26
2023-03-22T13:46:06.967Z,64.06
2023-03-22T13:48:43.911Z,63.71
2023-03-22T13:51:25.765Z,63.65
2023-03-22T13:54:00.340Z,63.94
2023-03-22T13:56:41.070Z,63.56
2023-03-22T13:59:32.402Z,63.94
2023-03-22T14:02:16.298Z,63.87
2023-03-22T14:04:46.151Z,64.03
2023-03-22T14:07:13.732Z,64.09
2023-03-22T14:09:48.703Z,64.31
2023-03-22T14:12:21.239Z,63.96
2023-03-22T14:14:54.911Z,63.79
2023-03-22T14:17:53.587Z,63.87
2023-03-22T14:20:22.833Z,63.92
